Time;durP1;ratioP1;P1;durP2;ratioP2;P2;SDS_P1;SDS_P2;PMS_P1;PMS_P2;Temp;Humidity;BMP_temperature;BMP_pressure;BME280_temperature;BME280_humidity;BME280_pressure;Samples;Min_cycle;Max_cycle;Signal;HPM_P1;HPM_P2
2023/09/11 00:01:25;;;;;;;382.00;83.33;;;;;;;;;;4995533;28;20031;-57
2023/09/11 00:03:51;;;;;;;282.73;80.72;;;;;;;;;;4995579;28;20284;-57
2023/09/11 00:06:16;;;;;;;364.00;83.65;;;;;;;;;;4993480;28;20019;-57
2023/09/11 00:08:41;;;;;;;273.23;79.38;;;;;;;;;;4999666;28;20030;-57
2023/09/11 00:11:07;;;;;;;306.88;80.00;;;;;;;;;;4995277;28;20033;-57
2023/09/11 00:13:32;;;;;;;286.93;78.83;;;;;;;;;;4995387;28;20105;-58
2023/09/11 00:15:57;;;;;;;301.90;80.50;;;;;;;;;;5000097;28;20874;-55
2023/09/11 00:18:26;;;;;;;409.30;83.65;;;;;;;;;;4995685;28;20056;-59
2023/09/11 00:20:51;;;;;;;283.98;78.03;;;;;;;;;;4997182;28;20492;-56
2023/09/11 00:23:16;;;;;;;365.38;82.68;;;;;;;;;;4992445;28;20029;-61
2023/09/11 00:25:42;;;;;;;280.00;79.78;;;;;;;;;;4995387;28;20096;-58
2023/09/11 00:28:07;;;;;;;235.45;67.60;;;;;;;;;;4996345;28;20117;-58
2023/09/11 00:30:32;;;;;;;375.40;78.90;;;;;;;;;;4994050;28;20474;-57
2023/09/11 00:32:57;;;;;;;306.75;77.18;;;;;;;;;;4998459;28;20256;-58
2023/09/11 00:35:23;;;;;;;466.67;84.77;;;;;;;;;;4998829;28;20151;-56
2023/09/11 00:37:48;;;;;;;278.10;79.40;;;;;;;;;;5000949;28;20730;-58
2023/09/11 00:40:13;;;;;;;308.67;78.87;;;;;;;;;;4994655;28;20273;-56
2023/09/11 00:42:38;;;;;;;309.60;80.40;;;;;;;;;;4992870;28;20364;-58
2023/09/11 00:45:04;;;;;;;305.58;81.10;;;;;;;;;;4996665;28;20297;-58
2023/09/11 00:47:29;;;;;;;470.83;88.15;;;;;;;;;;4993834;28;20125;-57
2023/09/11 00:49:56;;;;;;;346.25;83.28;;;;;;;;;;4997038;28;20028;-56
2023/09/11 00:52:21;;;;;;;487.50;90.18;;;;;;;;;;4994376;28;20026;-59
2023/09/11 00:54:47;;;;;;;306.30;84.40;;;;;;;;;;4994718;28;20077;-58
2023/09/11 00:57:17;;;;;;;324.65;85.30;;;;;;;;;;4996993;28;20117;-57
2023/09/11 00:59:44;;;;;;;293.50;86.43;;;;;;;;;;4996923;28;20267;-56
2023/09/11 01:02:10;;;;;;;307.55;85.40;;;;;;;;;;4997997;28;20035;-56
2023/09/11 01:04:35;;;;;;;356.02;88.30;;;;;;;;;;4995849;28;20068;-57
2023/09/11 01:07:01;;;;;;;338.13;84.93;;;;;;;;;;4995847;28;20101;-55
2023/09/11 01:09:26;;;;;;;432.90;88.80;;;;;;;;;;4993825;28;20498;-56
2023/09/11 01:11:51;;;;;;;355.73;83.53;;;;;;;;;;4996202;28;20410;-56
2023/09/11 01:14:17;;;;;;;331.23;86.63;;;;;;;;;;4991739;28;20299;-56
2023/09/11 01:16:45;;;;;;;299.13;82.53;;;;;;;;;;4996093;28;20361;-58
2023/09/11 01:19:16;;;;;;;328.17;83.80;;;;;;;;;;4993816;28;20514;-57
2023/09/11 01:21:59;;;;;;;324.00;86.30;;;;;;;;;;4992646;28;20081;-56
2023/09/11 01:24:33;;;;;;;461.13;95.00;;;;;;;;;;4994770;28;20615;-56
2023/09/11 01:27:17;;;;;;;319.33;89.55;;;;;;;;;;4998968;28;20069;-56
2023/09/11 01:29:43;;;;;;;339.30;89.13;;;;;;;;;;4994721;28;20037;-56
2023/09/11 01:32:10;;;;;;;352.33;90.53;;;;;;;;;;4992553;28;20052;-56
2023/09/11 01:34:35;;;;;;;487.27;98.93;;;;;;;;;;4993728;28;20021;-58
2023/09/11 01:37:00;;;;;;;332.98;93.50;;;;;;;;;;4995150;28;20033;-58
2023/09/11 01:39:26;;;;;;;479.23;98.77;;;;;;;;;;4993830;28;20060;-56
2023/09/11 01:41:53;;;;;;;361.40;92.90;;;;;;;;;;4993366;28;20256;-57
2023/09/11 01:44:18;;;;;;;329.83;92.25;;;;;;;;;;4995875;28;20024;-56
2023/09/11 01:46:45;;;;;;;335.98;93.05;;;;;;;;;;4994212;28;20030;-56
2023/09/11 01:49:11;;;;;;;333.13;91.35;;;;;;;;;;4992538;28;20070;-58
2023/09/11 01:51:37;;;;;;;447.23;98.50;;;;;;;;;;4992425;28;20045;-56
2023/09/11 01:54:02;;;;;;;347.15;94.30;;;;;;;;;;4998197;28;20567;-58
2023/09/11 01:56:28;;;;;;;490.40;100.10;;;;;;;;;;4995150;28;20581;-57
2023/09/11 01:58:55;;;;;;;336.92;93.40;;;;;;;;;;4995019;28;20037;-56
2023/09/11 02:01:20;;;;;;;347.92;94.55;;;;;;;;;;4995474;28;20049;-57
2023/09/11 02:03:45;;;;;;;365.77;94.10;;;;;;;;;;4995695;28;20408;-56
2023/09/11 02:06:11;;;;;;;310.90;93.40;;;;;;;;;;4995316;28;20030;-58
2023/09/11 02:08:36;;;;;;;446.97;98.17;;;;;;;;;;4995531;28;20261;-57
2023/09/11 02:11:01;;;;;;;324.10;87.13;;;;;;;;;;4993433;28;20277;-57
2023/09/11 02:13:26;;;;;;;440.67;90.63;;;;;;;;;;4995467;28;20261;-56
2023/09/11 02:15:51;;;;;;;334.03;85.80;;;;;;;;;;4990994;28;20286;-56
2023/09/11 02:18:18;;;;;;;322.37;90.33;;;;;;;;;;4997337;28;20698;-57
2023/09/11 02:20:47;;;;;;;349.60;87.20;;;;;;;;;;4993754;28;20038;-57
2023/09/11 02:23:13;;;;;;;326.63;89.05;;;;;;;;;;4996943;28;20021;-59
2023/09/11 02:25:38;;;;;;;446.30;97.10;;;;;;;;;;4991209;28;20044;-57
2023/09/11 02:28:03;;;;;;;338.43;91.40;;;;;;;;;;4997710;28;20484;-58
2023/09/11 02:30:28;;;;;;;495.55;100.38;;;;;;;;;;4993683;28;20096;-58
2023/09/11 02:32:54;;;;;;;348.63;94.43;;;;;;;;;;4997939;28;20612;-56
2023/09/11 02:35:19;;;;;;;330.07;93.90;;;;;;;;;;4998242;28;20026;-57
2023/09/11 02:37:44;;;;;;;383.93;96.77;;;;;;;;;;5000948;28;20314;-56
2023/09/11 02:40:09;;;;;;;348.07;91.00;;;;;;;;;;4992632;28;20747;-55
2023/09/11 02:42:35;;;;;;;406.50;99.78;;;;;;;;;;4996456;28;20042;-57
2023/09/11 02:45:00;;;;;;;327.00;95.40;;;;;;;;;;4993136;28;20026;-57
2023/09/11 02:47:25;;;;;;;471.60;101.27;;;;;;;;;;4990433;28;20042;-55
2023/09/11 02:49:50;;;;;;;348.20;95.83;;;;;;;;;;4996145;28;20283;-56
2023/09/11 02:52:16;;;;;;;351.77;96.83;;;;;;;;;;4995005;28;20272;-57
2023/09/11 02:54:41;;;;;;;383.30;98.90;;;;;;;;;;4994809;28;20252;-57
2023/09/11 02:57:06;;;;;;;337.53;97.63;;;;;;;;;;4995398;28;20034;-56
2023/09/11 02:59:33;;;;;;;491.60;108.47;;;;;;;;;;4989682;28;20275;-57
2023/09/11 03:01:58;;;;;;;343.50;99.07;;;;;;;;;;4992368;28;20277;-58
2023/09/11 03:04:23;;;;;;;392.57;102.03;;;;;;;;;;4991889;28;20037;-57
2023/09/11 03:06:49;;;;;;;400.42;101.85;;;;;;;;;;4993101;28;20285;-59
2023/09/11 03:09:14;;;;;;;350.57;101.63;;;;;;;;;;4994037;28;20505;-57
2023/09/11 03:11:39;;;;;;;440.67;104.80;;;;;;;;;;4991820;28;20261;-59
2023/09/11 03:14:04;;;;;;;355.07;100.60;;;;;;;;;;4992732;28;20827;-61
2023/09/11 03:16:30;;;;;;;450.55;104.72;;;;;;;;;;4993000;28;20296;-57
2023/09/11 03:18:55;;;;;;;368.80;102.67;;;;;;;;;;4995398;28;20013;-57
2023/09/11 03:21:20;;;;;;;373.33;103.60;;;;;;;;;;4994063;28;20302;-57
2023/09/11 03:23:45;;;;;;;369.20;102.93;;;;;;;;;;4994428;28;20636;-57
2023/09/11 03:26:11;;;;;;;344.93;103.07;;;;;;;;;;4993108;28;20281;-58
2023/09/11 03:28:36;;;;;;;484.48;110.00;;;;;;;;;;4994584;28;20101;-57
2023/09/11 03:31:04;;;;;;;361.80;99.43;;;;;;;;;;4994419;28;20041;-59
2023/09/11 03:33:30;;;;;;;514.65;110.85;;;;;;;;;;4990404;28;20621;-57
2023/09/11 03:35:55;;;;;;;379.38;105.03;;;;;;;;;;4995308;28;20529;-57
2023/09/11 03:38:20;;;;;;;361.97;103.20;;;;;;;;;;4996574;28;20401;-59
2023/09/11 03:40:46;;;;;;;385.13;106.00;;;;;;;;;;4991692;28;20287;-57
2023/09/11 03:43:11;;;;;;;336.95;103.97;;;;;;;;;;4995464;28;20264;-59
2023/09/11 03:45:36;;;;;;;536.85;110.25;;;;;;;;;;4995846;28;20562;-58
2023/09/11 03:48:02;;;;;;;379.23;105.20;;;;;;;;;;4992311;28;20497;-57
2023/09/11 03:50:27;;;;;;;437.20;108.85;;;;;;;;;;4991364;28;20057;-58
2023/09/11 03:52:52;;;;;;;376.30;103.30;;;;;;;;;;4996589;28;20379;-60
2023/09/11 03:55:17;;;;;;;331.70;102.82;;;;;;;;;;4991046;28;20300;-58
2023/09/11 03:57:43;;;;;;;484.85;109.47;;;;;;;;;;4990871;28;20030;-59
2023/09/11 04:00:08;;;;;;;363.30;104.05;;;;;;;;;;4994738;28;20053;-58
2023/09/11 04:02:34;;;;;;;508.00;110.68;;;;;;;;;;4991267;28;20175;-58
2023/09/11 04:04:59;;;;;;;339.75;103.55;;;;;;;;;;4996989;28;20667;-58
2023/09/11 04:07:24;;;;;;;373.73;104.30;;;;;;;;;;4999736;28;20034;-60
2023/09/11 04:09:49;;;;;;;388.65;105.20;;;;;;;;;;4996362;28;20507;-60
2023/09/11 04:12:16;;;;;;;371.83;104.20;;;;;;;;;;4996357;28;20046;-59
2023/09/11 04:14:42;;;;;;;474.27;112.13;;;;;;;;;;4997138;28;20285;-58
2023/09/11 04:17:10;;;;;;;353.60;104.20;;;;;;;;;;4992677;28;20118;-60
2023/09/11 04:19:35;;;;;;;536.90;111.57;;;;;;;;;;4998003;28;20034;-58
2023/09/11 04:22:01;;;;;;;393.60;107.10;;;;;;;;;;4995206;28;20811;-58
2023/09/11 04:24:26;;;;;;;392.30;104.93;;;;;;;;;;5000380;28;20072;-60
2023/09/11 04:26:52;;;;;;;366.27;104.75;;;;;;;;;;4996953;28;20078;-58
2023/09/11 04:29:17;;;;;;;379.70;106.53;;;;;;;;;;5000610;28;20027;-59
2023/09/11 04:31:42;;;;;;;511.65;113.43;;;;;;;;;;4994390;28;20022;-60
2023/09/11 04:34:08;;;;;;;371.87;105.27;;;;;;;;;;4998861;28;20041;-59
2023/09/11 04:36:33;;;;;;;510.45;113.10;;;;;;;;;;4996906;28;20281;-59
2023/09/11 04:38:58;;;;;;;363.83;93.22;;;;;;;;;;4996230;28;20460;-59
2023/09/11 04:41:23;;;;;;;345.95;97.30;;;;;;;;;;4997753;28;20271;-59
2023/09/11 04:43:49;;;;;;;336.47;96.33;;;;;;;;;;4997306;28;20017;-58
2023/09/11 04:46:16;;;;;;;382.08;100.13;;;;;;;;;;4997338;28;20261;-58
2023/09/11 04:48:42;;;;;;;447.42;103.13;;;;;;;;;;4998148;28;20350;-59
2023/09/11 04:51:07;;;;;;;293.27;86.28;;;;;;;;;;4992230;28;20604;-60
2023/09/11 04:53:32;;;;;;;450.67;99.82;;;;;;;;;;4994173;28;20022;-59
2023/09/11 04:55:57;;;;;;;390.10;99.43;;;;;;;;;;4992164;28;20042;-57
2023/09/11 04:58:25;;;;;;;332.27;99.63;;;;;;;;;;4996179;28;20318;-60
2023/09/11 05:00:51;;;;;;;376.45;101.55;;;;;;;;;;4993782;28;20034;-58
2023/09/11 05:03:16;;;;;;;363.92;99.82;;;;;;;;;;4994509;28;20037;-59
2023/09/11 05:05:42;;;;;;;429.02;106.35;;;;;;;;;;4993563;28;20544;-59
2023/09/11 05:08:07;;;;;;;349.10;100.70;;;;;;;;;;4994519;28;20030;-59
2023/09/11 05:10:33;;;;;;;442.75;103.35;;;;;;;;;;4992143;28;20503;-58
2023/09/11 05:12:58;;;;;;;359.30;99.03;;;;;;;;;;4993238;28;20044;-58
2023/09/11 05:15:23;;;;;;;370.98;100.10;;;;;;;;;;4993482;28;20415;-59
2023/09/11 05:17:49;;;;;;;493.55;104.38;;;;;;;;;;4992793;28;20010;-58
2023/09/11 05:20:15;;;;;;;380.17;101.55;;;;;;;;;;5000503;28;20025;-58
2023/09/11 05:22:40;;;;;;;449.55;105.47;;;;;;;;;;4997949;28;20766;-58
2023/09/11 05:25:05;;;;;;;327.77;99.63;;;;;;;;;;4996461;28;20072;-59
2023/09/11 05:27:31;;;;;;;408.70;101.15;;;;;;;;;;4994243;28;20510;-57
2023/09/11 05:29:56;;;;;;;435.88;102.53;;;;;;;;;;4994773;28;20022;-58
2023/09/11 05:32:23;;;;;;;364.35;100.50;;;;;;;;;;4994407;28;20392;-59
2023/09/11 05:34:48;;;;;;;411.15;103.93;;;;;;;;;;4995599;28;20425;-59
2023/09/11 05:37:13;;;;;;;396.48;102.10;;;;;;;;;;4992008;28;20044;-59
2023/09/11 05:39:38;;;;;;;426.33;103.95;;;;;;;;;;4994073;28;20017;-57
2023/09/11 05:42:04;;;;;;;364.37;99.53;;;;;;;;;;4993925;28;20030;-59
2023/09/11 05:44:29;;;;;;;374.33;98.50;;;;;;;;;;4989755;28;20273;-60
2023/09/11 05:46:54;;;;;;;392.67;100.73;;;;;;;;;;4990495;28;20125;-58
2023/09/11 05:49:21;;;;;;;372.13;100.60;;;;;;;;;;4997052;28;20298;-58
2023/09/11 05:51:46;;;;;;;423.98;100.93;;;;;;;;;;4993440;28;20280;-59
2023/09/11 05:54:11;;;;;;;386.65;99.88;;;;;;;;;;4997782;28;20546;-60
2023/09/11 05:56:36;;;;;;;450.40;101.80;;;;;;;;;;4994869;28;20038;-59
2023/09/11 05:59:02;;;;;;;349.80;96.32;;;;;;;;;;4994992;28;20304;-59
2023/09/11 06:01:27;;;;;;;359.60;96.57;;;;;;;;;;4997707;28;20161;-60
2023/09/11 06:03:52;;;;;;;371.20;95.82;;;;;;;;;;4993985;28;20120;-60
2023/09/11 06:06:18;;;;;;;371.10;95.13;;;;;;;;;;4996587;28;20036;-59
2023/09/11 06:08:43;;;;;;;407.67;99.00;;;;;;;;;;4998338;28;20019;-59
2023/09/11 06:11:08;;;;;;;349.07;96.70;;;;;;;;;;4997242;28;20060;-59
2023/09/11 06:13:35;;;;;;;412.00;98.43;;;;;;;;;;4993744;28;20630;-59
2023/09/11 06:16:01;;;;;;;373.83;95.90;;;;;;;;;;4994176;28;20038;-57
2023/09/11 06:18:26;;;;;;;361.42;95.35;;;;;;;;;;4995630;28;20188;-59
2023/09/11 06:20:51;;;;;;;523.35;103.55;;;;;;;;;;4995018;28;20116;-59
2023/09/11 06:23:17;;;;;;;356.05;94.00;;;;;;;;;;4997030;28;20424;-58
2023/09/11 06:25:42;;;;;;;412.23;95.87;;;;;;;;;;4990284;28;20544;-58
2023/09/11 06:28:07;;;;;;;347.73;93.87;;;;;;;;;;4995928;28;20508;-59
2023/09/11 06:30:34;;;;;;;403.75;96.35;;;;;;;;;;4992397;28;20277;-59
2023/09/11 06:32:59;;;;;;;364.80;94.65;;;;;;;;;;4992005;28;20688;-58
2023/09/11 06:35:24;;;;;;;333.13;93.73;;;;;;;;;;4989078;28;20044;-58
2023/09/11 06:37:49;;;;;;;485.05;102.28;;;;;;;;;;4995490;28;20269;-59
2023/09/11 06:40:15;;;;;;;385.03;96.37;;;;;;;;;;4991484;28;20047;-60
2023/09/11 06:42:40;;;;;;;440.93;96.87;;;;;;;;;;4989999;28;20045;-60
2023/09/11 06:45:05;;;;;;;365.40;92.37;;;;;;;;;;4991647;28;20323;-60
2023/09/11 06:47:31;;;;;;;366.23;90.57;;;;;;;;;;4994375;28;20030;-59
2023/09/11 06:49:56;;;;;;;388.65;87.82;;;;;;;;;;4994322;28;20451;-59
2023/09/11 06:52:21;;;;;;;479.03;266.23;;;;;;;;;;4993756;28;20114;-60
2023/09/11 06:54:47;;;;;;;434.35;111.55;;;;;;;;;;4995024;28;20648;-61
2023/09/11 06:57:12;;;;;;;345.50;81.10;;;;;;;;;;4994138;28;20036;-59
2023/09/11 06:59:37;;;;;;;377.70;213.03;;;;;;;;;;4994556;28;20838;-59
2023/09/11 07:02:03;;;;;;;363.30;186.10;;;;;;;;;;4992280;28;20392;-59
2023/09/11 07:04:30;;;;;;;331.75;133.18;;;;;;;;;;4991341;28;20316;-60
2023/09/11 07:06:56;;;;;;;524.63;192.98;;;;;;;;;;4995063;28;20072;-63
2023/09/11 07:09:21;;;;;;;326.80;126.45;;;;;;;;;;4993784;28;20542;-60
2023/09/11 07:11:46;;;;;;;408.17;145.30;;;;;;;;;;4994156;28;20046;-60
2023/09/11 07:14:18;;;;;;;440.03;282.77;;;;;;;;;;4991431;28;20452;-60
2023/09/11 07:16:43;;;;;;;563.80;287.63;;;;;;;;;;4991621;28;20616;-60
2023/09/11 07:19:08;;;;;;;398.20;281.77;;;;;;;;;;4996604;28;20027;-60
2023/09/11 07:21:33;;;;;;;432.33;259.40;;;;;;;;;;4995924;28;20455;-60
2023/09/11 07:23:59;;;;;;;504.23;365.67;;;;;;;;;;4992456;28;20072;-60
2023/09/11 07:26:24;;;;;;;382.87;240.20;;;;;;;;;;4991639;28;20044;-61
2023/09/11 07:28:56;;;;;;;548.40;327.90;;;;;;;;;;5009019;28;20066;-61
2023/09/11 07:31:22;;;;;;;507.63;435.63;;;;;;;;;;4993539;28;20365;-61
2023/09/11 07:33:47;;;;;;;619.08;421.45;;;;;;;;;;4996622;28;20022;-58
2023/09/11 07:36:13;;;;;;;483.00;405.57;;;;;;;;;;4996924;28;20091;-59
2023/09/11 07:38:44;;;;;;;551.42;394.05;;;;;;;;;;4997343;28;20107;-57
2023/09/11 07:41:09;;;;;;;482.23;343.30;;;;;;;;;;4999476;28;20030;-58
2023/09/11 07:43:34;;;;;;;482.53;376.87;;;;;;;;;;4997079;28;20085;-58
2023/09/11 07:46:00;;;;;;;460.88;266.20;;;;;;;;;;4994025;28;20036;-58
2023/09/11 07:48:25;;;;;;;395.57;212.07;;;;;;;;;;4999869;28;20048;-58
2023/09/11 07:50:54;;;;;;;551.08;270.70;;;;;;;;;;4995264;28;20308;-58
2023/09/11 07:53:19;;;;;;;469.00;389.90;;;;;;;;;;4995133;28;20013;-58
2023/09/11 07:55:45;;;;;;;409.53;102.93;;;;;;;;;;4995424;28;20428;-59
2023/09/11 07:58:10;;;;;;;422.33;235.83;;;;;;;;;;4997678;28;20022;-59
2023/09/11 08:00:35;;;;;;;379.33;248.30;;;;;;;;;;4997212;28;20040;-58
2023/09/11 08:03:00;;;;;;;468.23;345.80;;;;;;;;;;4997373;28;20005;-60
2023/09/11 08:05:25;;;;;;;399.40;280.47;;;;;;;;;;4994104;28;20080;-60
2023/09/11 08:07:51;;;;;;;680.87;432.00;;;;;;;;;;4995841;28;20014;-62
2023/09/11 08:10:16;;;;;;;385.42;274.27;;;;;;;;;;4994736;28;20539;-60
2023/09/11 08:12:42;;;;;;;468.27;349.67;;;;;;;;;;4994757;28;20026;-60
2023/09/11 08:15:07;;;;;;;597.20;444.73;;;;;;;;;;4994936;28;20249;-61
2023/09/11 08:17:33;;;;;;;506.92;429.48;;;;;;;;;;4996773;28;20046;-61
2023/09/11 08:19:58;;;;;;;661.67;351.70;;;;;;;;;;4995385;28;20017;-60
2023/09/11 08:22:23;;;;;;;528.73;324.87;;;;;;;;;;4999184;28;20048;-61
2023/09/11 08:24:49;;;;;;;590.13;398.67;;;;;;;;;;4999780;28;20797;-60
2023/09/11 08:27:14;;;;;;;463.17;405.73;;;;;;;;;;4996028;28;20396;-59
2023/09/11 08:29:40;;;;;;;499.20;400.73;;;;;;;;;;4997219;28;20029;-61
2023/09/11 08:32:05;;;;;;;475.67;369.03;;;;;;;;;;4994587;28;20073;-61
2023/09/11 08:34:31;;;;;;;476.43;327.93;;;;;;;;;;4996341;28;20018;-60
2023/09/11 08:36:57;;;;;;;657.93;450.87;;;;;;;;;;4994870;28;20026;-59
2023/09/11 08:39:23;;;;;;;491.40;403.30;;;;;;;;;;4993750;28;20406;-59
2023/09/11 08:41:49;;;;;;;479.27;239.20;;;;;;;;;;4994830;28;20478;-59
2023/09/11 08:44:14;;;;;;;350.73;253.35;;;;;;;;;;4998788;28;20018;-59
2023/09/11 08:46:40;;;;;;;428.77;283.83;;;;;;;;;;4994965;28;20071;-59
2023/09/11 08:49:07;;;;;;;524.58;420.92;;;;;;;;;;4991797;28;20069;-61
2023/09/11 08:51:34;;;;;;;430.27;314.92;;;;;;;;;;4994412;28;20133;-59
2023/09/11 08:54:00;;;;;;;624.05;436.00;;;;;;;;;;4995170;28;20089;-61
2023/09/11 08:56:26;;;;;;;465.77;366.73;;;;;;;;;;4998101;28;20137;-61
2023/09/11 08:58:51;;;;;;;611.35;369.92;;;;;;;;;;4996510;28;20109;-59
2023/09/11 09:01:16;;;;;;;502.15;446.17;;;;;;;;;;4996281;28;20030;-59
2023/09/11 09:03:42;;;;;;;519.30;447.42;;;;;;;;;;4996627;28;20022;-60
2023/09/11 09:06:07;;;;;;;463.77;410.27;;;;;;;;;;4994389;28;20034;-60
2023/09/11 09:08:33;;;;;;;468.87;380.07;;;;;;;;;;4995879;28;20033;-60
2023/09/11 09:10:58;;;;;;;636.47;440.37;;;;;;;;;;4995559;28;20080;-59
2023/09/11 09:13:24;;;;;;;473.73;396.15;;;;;;;;;;4999261;28;20286;-61
2023/09/11 09:15:49;;;;;;;619.33;330.25;;;;;;;;;;4992871;28;20061;-61
2023/09/11 09:18:15;;;;;;;470.87;379.30;;;;;;;;;;4994102;28;20022;-60
2023/09/11 09:20:40;;;;;;;495.17;376.97;;;;;;;;;;4994522;28;20030;-59
2023/09/11 09:23:08;;;;;;;449.85;358.23;;;;;;;;;;4994484;28;20029;-59
2023/09/11 09:25:33;;;;;;;423.27;322.33;;;;;;;;;;4994289;28;20125;-61
2023/09/11 09:27:59;;;;;;;565.53;299.27;;;;;;;;;;4996337;28;20152;-61
2023/09/11 09:30:25;;;;;;;488.92;417.00;;;;;;;;;;4994673;28;20289;-58
2023/09/11 09:32:52;;;;;;;578.65;334.48;;;;;;;;;;4992989;28;20018;-58
2023/09/11 09:35:19;;;;;;;486.42;365.85;;;;;;;;;;4993738;28;20018;-58
2023/09/11 09:37:54;;;;;;;418.15;349.80;;;;;;;;;;4993179;28;20048;-58
2023/09/11 09:40:33;;;;;;;470.10;369.10;;;;;;;;;;4999451;28;20021;-57
2023/09/11 09:43:03;;;;;;;587.33;379.15;;;;;;;;;;4991479;28;20014;-58
2023/09/11 09:45:38;;;;;;;441.80;327.95;;;;;;;;;;4992345;28;20041;-57
2023/09/11 09:48:16;;;;;;;541.03;324.08;;;;;;;;;;4995388;28;20056;-58
2023/09/11 09:50:58;;;;;;;403.80;293.77;;;;;;;;;;4993088;28;20058;-59
2023/09/11 09:53:41;;;;;;;466.10;343.23;;;;;;;;;;4988121;28;20447;-58
2023/09/11 09:56:07;;;;;;;407.25;308.63;;;;;;;;;;4995307;28;20033;-60
2023/09/11 09:58:34;;;;;;;403.20;330.85;;;;;;;;;;4997804;28;20031;-59
2023/09/11 10:01:00;;;;;;;614.10;384.42;;;;;;;;;;4994017;28;20037;-59
2023/09/11 10:03:25;;;;;;;466.88;359.98;;;;;;;;;;4996653;28;20108;-60
2023/09/11 10:05:51;;;;;;;568.95;343.00;;;;;;;;;;4994347;28;20128;-58
2023/09/11 10:08:16;;;;;;;465.90;390.23;;;;;;;;;;4998306;28;20039;-58
2023/09/11 10:10:41;;;;;;;475.10;387.43;;;;;;;;;;4995838;28;20094;-58
2023/09/11 10:13:08;;;;;;;416.43;345.67;;;;;;;;;;4995749;28;20589;-58
2023/09/11 10:15:35;;;;;;;457.75;365.83;;;;;;;;;;4995392;28;20393;-58
2023/09/11 10:18:00;;;;;;;544.05;285.98;;;;;;;;;;4995233;28;20061;-59
2023/09/11 10:20:26;;;;;;;515.92;368.67;;;;;;;;;;4993375;28;20141;-59
2023/09/11 10:22:55;;;;;;;519.83;362.95;;;;;;;;;;4993479;28;20025;-58
2023/09/11 10:25:21;;;;;;;418.58;286.73;;;;;;;;;;4994096;28;20018;-59
2023/09/11 10:27:48;;;;;;;374.27;277.23;;;;;;;;;;4994524;28;20428;-58
2023/09/11 10:30:15;;;;;;;410.35;311.40;;;;;;;;;;4992908;28;20302;-59
2023/09/11 10:32:46;;;;;;;454.38;368.13;;;;;;;;;;4994449;28;20026;-58
2023/09/11 10:35:11;;;;;;;442.30;362.33;;;;;;;;;;4997010;28;20537;-59
2023/09/11 10:37:38;;;;;;;536.00;432.52;;;;;;;;;;4994965;28;20029;-59
2023/09/11 10:40:04;;;;;;;522.30;336.30;;;;;;;;;;4992852;28;20289;-58
2023/09/11 10:42:30;;;;;;;448.65;301.35;;;;;;;;;;4998178;28;20041;-60
2023/09/11 10:44:56;;;;;;;586.00;363.97;;;;;;;;;;4992558;28;20089;-58
2023/09/11 10:47:22;;;;;;;419.92;325.77;;;;;;;;;;4993935;28;20338;-58
2023/09/11 10:49:49;;;;;;;460.50;361.08;;;;;;;;;;4995347;28;20018;-57
2023/09/11 10:52:15;;;;;;;387.60;340.85;;;;;;;;;;4993084;28;20026;-60
2023/09/11 10:54:40;;;;;;;437.05;376.25;;;;;;;;;;4994193;28;20010;-58
2023/09/11 10:57:06;;;;;;;552.17;402.52;;;;;;;;;;4992466;28;20593;-59
2023/09/11 10:59:31;;;;;;;437.30;313.10;;;;;;;;;;4995331;28;20403;-58
2023/09/11 11:01:57;;;;;;;558.38;349.48;;;;;;;;;;4990797;28;20080;-60
2023/09/11 11:04:24;;;;;;;492.25;358.58;;;;;;;;;;4993647;28;20042;-59
2023/09/11 11:06:52;;;;;;;407.02;320.20;;;;;;;;;;4989002;28;20022;-60
2023/09/11 11:09:33;;;;;;;516.65;450.83;;;;;;;;;;4993084;28;20132;-59
2023/09/11 11:12:01;;;;;;;467.52;316.10;;;;;;;;;;4994141;28;20029;-60
2023/09/11 11:14:26;;;;;;;439.20;334.23;;;;;;;;;;5001352;28;20475;-60
2023/09/11 11:16:54;;;;;;;450.20;324.03;;;;;;;;;;4997049;28;20118;-59
2023/09/11 11:19:33;;;;;;;371.85;280.00;;;;;;;;;;5003520;28;20450;-59
2023/09/11 11:21:59;;;;;;;543.38;345.00;;;;;;;;;;4997411;28;20041;-59
2023/09/11 11:24:24;;;;;;;407.65;289.40;;;;;;;;;;4997707;28;20026;-60
2023/09/11 11:26:53;;;;;;;431.92;320.55;;;;;;;;;;4997140;28;20033;-59
2023/09/11 11:29:19;;;;;;;468.45;371.98;;;;;;;;;;4998446;28;20092;-59
2023/09/11 11:31:46;;;;;;;372.50;254.55;;;;;;;;;;4996888;28;20034;-59
2023/09/11 11:34:11;;;;;;;435.10;330.60;;;;;;;;;;5000786;28;20966;-60
2023/09/11 11:36:38;;;;;;;473.70;357.90;;;;;;;;;;5001090;28;20137;-59
2023/09/11 11:39:03;;;;;;;594.72;442.08;;;;;;;;;;5001538;28;20137;-59
2023/09/11 11:41:30;;;;;;;458.10;305.08;;;;;;;;;;4997967;28;20036;-59
2023/09/11 11:43:56;;;;;;;535.83;354.15;;;;;;;;;;4997821;28;20486;-61
2023/09/11 11:46:27;;;;;;;500.48;440.13;;;;;;;;;;5004968;28;20638;-60
2023/09/11 11:48:53;;;;;;;488.88;369.02;;;;;;;;;;4998529;28;20411;-60
2023/09/11 11:51:26;;;;;;;391.75;277.35;;;;;;;;;;4999199;28;20582;-59
2023/09/11 11:53:51;;;;;;;401.83;247.20;;;;;;;;;;5001221;28;20027;-59
2023/09/11 11:56:16;;;;;;;478.17;275.23;;;;;;;;;;4997228;28;20033;-61
2023/09/11 11:58:42;;;;;;;399.10;291.33;;;;;;;;;;4999576;28;20341;-61
2023/09/11 12:01:07;;;;;;;582.33;309.93;;;;;;;;;;4999359;28;20034;-59
2023/09/11 12:03:44;;;;;;;395.20;274.57;;;;;;;;;;4998692;28;20096;-60
2023/09/11 12:06:09;;;;;;;599.22;327.17;;;;;;;;;;4998039;28;20046;-59
2023/09/11 12:08:34;;;;;;;565.77;427.73;;;;;;;;;;4997449;28;20379;-60
2023/09/11 12:11:00;;;;;;;505.67;142.03;;;;;;;;;;5000126;28;20836;-59
2023/09/11 12:13:25;;;;;;;466.80;364.40;;;;;;;;;;5003749;28;20057;-59
2023/09/11 12:15:57;;;;;;;426.30;292.17;;;;;;;;;;4998967;28;20034;-59
2023/09/11 12:18:23;;;;;;;511.98;413.52;;;;;;;;;;5003173;28;20061;-58
2023/09/11 12:20:53;;;;;;;310.63;113.82;;;;;;;;;;5000701;28;20037;-58
2023/09/11 12:23:18;;;;;;;497.23;413.08;;;;;;;;;;4999885;28;20483;-59
2023/09/11 12:25:43;;;;;;;581.88;481.42;;;;;;;;;;4994974;28;20049;-59
2023/09/11 12:28:09;;;;;;;556.53;293.70;;;;;;;;;;4994797;28;20609;-61
2023/09/11 12:30:34;;;;;;;458.60;303.60;;;;;;;;;;4998894;28;20656;-58
2023/09/11 12:32:59;;;;;;;560.85;252.55;;;;;;;;;;4996726;28;20014;-59
2023/09/11 12:35:29;;;;;;;424.75;280.55;;;;;;;;;;4996022;28;20038;-59
2023/09/11 12:37:55;;;;;;;433.45;254.80;;;;;;;;;;5000501;28;20025;-60
2023/09/11 12:40:20;;;;;;;537.35;443.52;;;;;;;;;;4995832;28;20029;-59
2023/09/11 12:42:45;;;;;;;449.63;294.20;;;;;;;;;;4997336;28;20142;-59
2023/09/11 12:45:10;;;;;;;549.17;314.93;;;;;;;;;;5000344;28;20138;-58
2023/09/11 12:47:36;;;;;;;448.15;299.95;;;;;;;;;;4999264;28;20340;-58
2023/09/11 12:50:01;;;;;;;632.53;303.00;;;;;;;;;;4997647;28;20037;-63
2023/09/11 12:52:27;;;;;;;501.33;316.38;;;;;;;;;;4996792;28;20038;-58
2023/09/11 12:54:52;;;;;;;435.23;349.63;;;;;;;;;;4997693;28;20017;-61
2023/09/11 12:57:18;;;;;;;443.57;282.87;;;;;;;;;;4996825;28;20041;-59
2023/09/11 12:59:43;;;;;;;560.60;432.65;;;;;;;;;;4998652;28;20248;-61
2023/09/11 13:02:11;;;;;;;589.78;366.52;;;;;;;;;;4996692;28;20035;-59
2023/09/11 13:04:36;;;;;;;524.13;370.35;;;;;;;;;;4999154;28;20117;-57
2023/09/11 13:07:02;;;;;;;596.80;331.58;;;;;;;;;;4994030;28;20037;-58
2023/09/11 13:09:27;;;;;;;283.30;207.38;;;;;;;;;;4996150;28;20057;-58
2023/09/11 13:11:53;;;;;;;434.58;325.05;;;;;;;;;;4999788;28;20084;-58
2023/09/11 13:14:18;;;;;;;335.25;212.82;;;;;;;;;;4998151;28;20641;-59
2023/09/11 13:16:44;;;;;;;354.90;246.00;;;;;;;;;;4999345;28;20381;-59
2023/09/11 13:19:09;;;;;;;445.75;296.42;;;;;;;;;;4996015;28;20029;-59
2023/09/11 13:21:34;;;;;;;311.20;214.85;;;;;;;;;;5002091;28;20046;-60
2023/09/11 13:24:00;;;;;;;449.10;237.68;;;;;;;;;;4997799;28;20531;-58
2023/09/11 13:26:25;;;;;;;448.13;395.50;;;;;;;;;;4995683;28;20034;-60
2023/09/11 13:28:50;;;;;;;311.43;218.70;;;;;;;;;;4995576;28;20260;-58
2023/09/11 13:31:15;;;;;;;429.17;226.33;;;;;;;;;;4995618;28;20273;-58
2023/09/11 13:33:42;;;;;;;356.17;239.20;;;;;;;;;;4995852;28;20280;-60
2023/09/11 13:36:08;;;;;;;486.98;271.63;;;;;;;;;;4988720;28;20282;-58
2023/09/11 13:38:33;;;;;;;407.77;314.10;;;;;;;;;;4994314;28;20088;-59
2023/09/11 13:40:58;;;;;;;384.70;252.83;;;;;;;;;;4993875;28;20038;-59
2023/09/11 13:43:23;;;;;;;401.52;238.60;;;;;;;;;;4993450;28;20022;-59
2023/09/11 13:45:49;;;;;;;301.92;232.30;;;;;;;;;;4999484;28;20061;-58
2023/09/11 13:48:14;;;;;;;467.67;227.50;;;;;;;;;;4996471;28;20065;-58
2023/09/11 13:50:39;;;;;;;422.97;277.20;;;;;;;;;;4994617;28;20726;-58